createdAt,value
2023-01-02T00:01:55.365Z,88.90
2023-01-02T00:04:21.963Z,88.90
2023-01-02T00:06:48.538Z,88.90
2023-01-02T00:09:15.153Z,88.90
2023-01-02T00:11:41.805Z,89.50
2023-01-02T00:14:08.361Z,89.70
2023-01-02T00:16:34.980Z,89.50
2023-01-02T00:19:01.646Z,89.60
2023-01-02T00:21:28.316Z,89.50
2023-01-02T00:23:54.911Z,89.40
2023-01-02T00:26:21.497Z,89.10
2023-01-02T00:28:48.112Z,89.40
2023-01-02T00:31:14.808Z,89.20
2023-01-02T00:33:41.423Z,89.20
2023-01-02T00:36:09.314Z,89.20
2023-01-02T00:38:38.310Z,89.30
2023-01-02T00:41:05.407Z,89.40
2023-01-02T00:43:32.028Z,89.30
2023-01-02T00:45:58.664Z,89.40
2023-01-02T00:48:25.247Z,89.80
2023-01-02T00:50:51.833Z,91.60
2023-01-02T00:53:19.065Z,92.00
2023-01-02T00:55:46.064Z,91.60
2023-01-02T00:58:13.011Z,90.80
2023-01-02T01:00:39.936Z,90.80
2023-01-02T01:03:06.669Z,90.90
2023-01-02T01:05:33.262Z,90.90
2023-01-02T01:07:59.998Z,90.90
2023-01-02T01:10:27.003Z,91.00
2023-01-02T01:12:53.650Z,90.80
2023-01-02T01:15:20.211Z,90.90
2023-01-02T01:17:46.888Z,91.00
2023-01-02T01:20:13.669Z,90.90
2023-01-02T01:22:40.431Z,90.80
2023-01-02T01:25:07.141Z,90.80
2023-01-02T01:27:33.795Z,90.80
2023-01-02T01:30:00.364Z,90.60
2023-01-02T01:32:28.445Z,91.00
2023-01-02T01:34:55.067Z,90.90
2023-01-02T01:37:21.694Z,90.90
2023-01-02T01:39:49.822Z,90.30
2023-01-02T01:42:19.632Z,90.70
2023-01-02T01:44:46.342Z,90.30
2023-01-02T01:47:18.884Z,90.70
2023-01-02T01:49:45.806Z,91.60
2023-01-02T01:52:15.739Z,91.80
2023-01-02T01:54:46.332Z,91.60
2023-01-02T01:57:15.518Z,91.60
2023-01-02T01:59:42.159Z,91.60
2023-01-02T02:02:08.976Z,91.30
2023-01-02T02:04:36.097Z,91.40
2023-01-02T02:07:02.762Z,91.40
2023-01-02T02:09:32.138Z,91.30
2023-01-02T02:11:58.810Z,91.40
2023-01-02T02:14:25.456Z,91.20
2023-01-02T02:17:04.444Z,91.30
2023-01-02T02:19:42.630Z,91.20
2023-01-02T02:22:31.672Z,91.30
2023-01-02T02:25:16.875Z,91.40
2023-01-02T02:27:49.253Z,91.30
2023-01-02T02:30:17.156Z,91.10
2023-01-02T02:32:43.756Z,91.20
2023-01-02T02:35:22.232Z,91.10
2023-01-02T02:37:52.936Z,91.10
2023-01-02T02:40:27.272Z,91.10
2023-01-02T02:43:13.367Z,91.20
2023-01-02T02:45:39.939Z,91.10
2023-01-02T02:48:21.917Z,91.00
2023-01-02T02:50:50.735Z,91.10
2023-01-02T02:53:29.739Z,91.20
2023-01-02T02:55:58.512Z,91.00
2023-01-02T02:58:26.018Z,91.20
2023-01-02T03:01:01.295Z,91.10
2023-01-02T03:03:28.107Z,91.10
2023-01-02T03:06:00.696Z,91.10
2023-01-02T03:08:33.808Z,91.10
2023-01-02T03:11:02.273Z,91.10
2023-01-02T03:13:41.418Z,91.20
2023-01-02T03:16:12.169Z,91.20
2023-01-02T03:18:43.232Z,91.10
2023-01-02T03:21:16.136Z,91.10
2023-01-02T03:23:46.734Z,91.10
2023-01-02T03:26:15.394Z,91.20
2023-01-02T03:28:43.666Z,91.10
2023-01-02T03:31:13.331Z,91.30
2023-01-02T03:33:41.762Z,91.20
2023-01-02T03:36:11.784Z,91.00
2023-01-02T03:38:44.062Z,91.00
2023-01-02T03:41:29.776Z,91.00
2023-01-02T03:43:57.843Z,91.10
2023-01-02T03:46:24.496Z,91.10
2023-01-02T03:48:51.074Z,91.00
2023-01-02T03:51:17.745Z,91.00
2023-01-02T03:53:44.742Z,91.10
2023-01-02T03:56:24.690Z,91.00
2023-01-02T03:58:54.625Z,91.00
2023-01-02T04:01:33.786Z,91.00
2023-01-02T04:04:13.401Z,91.00
2023-01-02T04:06:42.768Z,90.70
2023-01-02T04:09:10.810Z,91.00
2023-01-02T04:11:38.671Z,91.10
2023-01-02T04:14:09.735Z,91.10
2023-01-02T04:16:37.343Z,91.20
2023-01-02T04:19:13.604Z,91.10
2023-01-02T04:21:41.359Z,91.10
2023-01-02T04:24:11.397Z,91.20
2023-01-02T04:26:54.837Z,91.10
2023-01-02T04:29:21.385Z,91.20
2023-01-02T04:32:01.181Z,91.20
2023-01-02T04:34:29.650Z,91.20
2023-01-02T04:36:56.312Z,91.20
2023-01-02T04:39:23.204Z,91.10
2023-01-02T04:41:49.854Z,91.20
2023-01-02T04:44:16.414Z,91.10
2023-01-02T04:46:43.055Z,91.10
2023-01-02T04:49:09.779Z,91.10
2023-01-02T04:51:36.355Z,91.30
2023-01-02T04:54:02.910Z,91.30
2023-01-02T04:56:29.493Z,91.20
2023-01-02T04:58:56.073Z,91.30
2023-01-02T05:01:22.859Z,91.10
2023-01-02T05:03:51.269Z,91.20
2023-01-02T05:06:18.101Z,91.40
2023-01-02T05:08:44.725Z,91.40
2023-01-02T05:11:12.987Z,91.30
2023-01-02T05:13:39.662Z,91.40
2023-01-02T05:16:06.672Z,91.30
2023-01-02T05:18:33.290Z,91.50
2023-01-02T05:21:00.824Z,91.60
2023-01-02T05:23:45.836Z,91.60
2023-01-02T05:26:12.481Z,91.60
2023-01-02T05:28:39.434Z,91.60
2023-01-02T05:31:06.105Z,91.50
2023-01-02T05:33:32.757Z,91.60
2023-01-02T05:35:59.557Z,91.60
2023-01-02T05:38:26.205Z,91.60
2023-01-02T05:41:05.573Z,91.50
2023-01-02T05:43:33.021Z,91.50
2023-01-02T05:46:06.439Z,91.40
2023-01-02T05:48:33.041Z,91.50
2023-01-02T05:51:06.260Z,91.40
2023-01-02T05:53:32.900Z,91.40
2023-01-02T05:56:09.839Z,91.50
2023-01-02T05:58:37.184Z,91.30
2023-01-02T06:01:08.239Z,91.50
2023-01-02T06:03:35.188Z,91.50
2023-01-02T06:06:02.698Z,91.40
2023-01-02T06:08:29.257Z,91.40
2023-01-02T06:10:55.890Z,91.40
2023-01-02T06:13:22.469Z,91.30
2023-01-02T06:15:49.038Z,91.50
2023-01-02T06:18:15.765Z,91.50
2023-01-02T06:20:42.416Z,91.60
2023-01-02T06:23:09.001Z,91.50
2023-01-02T06:25:35.676Z,91.40
2023-01-02T06:28:02.235Z,91.40
2023-01-02T06:30:28.812Z,91.40
2023-01-02T06:32:58.558Z,91.60
2023-01-02T06:35:25.155Z,91.50
2023-01-02T06:37:51.835Z,91.40
2023-01-02T06:40:18.455Z,91.30
2023-01-02T06:42:45.245Z,91.40
2023-01-02T06:45:12.021Z,91.40
2023-01-02T06:47:38.615Z,91.70
2023-01-02T06:50:05.423Z,91.70
2023-01-02T06:52:32.004Z,91.20
2023-01-02T06:54:58.615Z,90.60
2023-01-02T06:57:25.224Z,90.90
2023-01-02T06:59:51.823Z,90.80
2023-01-02T07:02:18.471Z,90.40
2023-01-02T07:04:45.136Z,90.50
2023-01-02T07:07:30.217Z,90.30
2023-01-02T07:09:57.244Z,90.40
2023-01-02T07:12:24.267Z,90.40
2023-01-02T07:14:50.858Z,90.30
2023-01-02T07:17:17.477Z,90.60
2023-01-02T07:19:48.367Z,90.50
2023-01-02T07:22:18.092Z,90.20
2023-01-02T07:24:44.736Z,90.30
2023-01-02T07:27:11.327Z,90.30
2023-01-02T07:29:37.977Z,90.00
2023-01-02T07:32:04.722Z,90.10
2023-01-02T07:34:31.368Z,90.00
2023-01-02T07:36:57.973Z,90.00
2023-01-02T07:39:24.566Z,90.00
2023-01-02T07:41:51.148Z,89.80
2023-01-02T07:44:18.043Z,89.80
2023-01-02T07:46:44.636Z,89.80
2023-01-02T07:49:12.367Z,89.80
2023-01-02T07:51:40.810Z,91.00
2023-01-02T07:54:07.436Z,91.70
2023-01-02T07:56:34.021Z,91.80
2023-01-02T07:59:00.614Z,91.80
2023-01-02T08:01:27.259Z,91.60
2023-01-02T08:03:53.911Z,91.70
2023-01-02T08:06:20.616Z,91.50
2023-01-02T08:08:47.587Z,91.60
2023-01-02T08:11:17.786Z,91.60
2023-01-02T08:13:44.554Z,91.40
2023-01-02T08:16:12.381Z,91.40
2023-01-02T08:18:39.217Z,91.50
2023-01-02T08:21:06.133Z,91.60
2023-01-02T08:23:32.864Z,91.40
2023-01-02T08:26:00.399Z,91.20
2023-01-02T08:28:27.571Z,91.20
2023-01-02T08:30:54.349Z,91.20
2023-01-02T08:33:21.101Z,91.10
2023-01-02T08:35:47.739Z,91.00
2023-01-02T08:38:14.339Z,91.00
2023-01-02T08:40:40.979Z,90.90
2023-01-02T08:43:08.113Z,90.90
2023-01-02T08:45:34.731Z,91.10
2023-01-02T08:48:01.549Z,91.20
2023-01-02T08:50:47.926Z,91.10
2023-01-02T08:53:14.519Z,91.10
2023-01-02T08:55:41.154Z,91.00
2023-01-02T08:58:07.818Z,90.90
2023-01-02T09:00:34.425Z,91.00
2023-01-02T09:03:01.379Z,90.90
2023-01-02T09:05:30.824Z,90.80
2023-01-02T09:07:57.922Z,91.00
2023-01-02T09:10:24.611Z,90.90
2023-01-02T09:12:51.270Z,90.90
2023-01-02T09:15:17.922Z,90.90
2023-01-02T09:17:44.595Z,90.90
2023-01-02T09:20:11.180Z,90.90
2023-01-02T09:22:37.905Z,90.90
2023-01-02T09:25:04.806Z,90.80
2023-01-02T09:27:31.445Z,90.80
2023-01-02T09:29:58.083Z,90.90
2023-01-02T09:32:24.651Z,90.80
2023-01-02T09:34:51.706Z,90.80
2023-01-02T09:37:18.363Z,90.80
2023-01-02T09:39:44.972Z,90.70
2023-01-02T09:42:15.944Z,90.50
2023-01-02T09:44:45.456Z,90.60
2023-01-02T09:47:12.034Z,90.80
2023-01-02T09:49:47.295Z,90.70
2023-01-02T09:52:16.550Z,90.80
2023-01-02T09:54:43.273Z,90.70
2023-01-02T09:57:12.647Z,90.70
2023-01-02T09:59:42.889Z,90.70
2023-01-02T10:02:12.233Z,90.60
2023-01-02T10:05:00.222Z,90.50
2023-01-02T10:07:34.046Z,90.50
2023-01-02T10:10:07.909Z,90.40
2023-01-02T10:12:47.073Z,90.40
2023-01-02T10:15:15.100Z,90.40
2023-01-02T10:17:46.695Z,90.40
2023-01-02T10:20:25.876Z,90.40
2023-01-02T10:22:55.754Z,90.30
2023-01-02T10:25:26.507Z,90.40
2023-01-02T10:28:01.273Z,90.30
2023-01-02T10:30:29.262Z,90.30
2023-01-02T10:32:58.511Z,90.40
2023-01-02T10:35:36.391Z,90.50
2023-01-02T10:38:03.105Z,90.40
2023-01-02T10:40:30.494Z,90.40
2023-01-02T10:43:00.042Z,90.40
2023-01-02T10:45:26.898Z,90.30
2023-01-02T10:47:53.556Z,90.30
2023-01-02T10:50:29.042Z,90.30
2023-01-02T10:53:08.968Z,90.40
2023-01-02T10:55:40.316Z,90.40
2023-01-02T10:58:27.166Z,90.50
2023-01-02T11:01:05.016Z,90.40
2023-01-02T11:03:31.729Z,90.40
2023-01-02T11:06:05.872Z,90.30
2023-01-02T11:08:54.785Z,90.40
2023-01-02T11:11:23.014Z,90.40
2023-01-02T11:13:54.367Z,90.40
2023-01-02T11:16:22.598Z,90.50
2023-01-02T11:18:56.481Z,90.40
2023-01-02T11:21:27.827Z,90.30
2023-01-02T11:24:02.201Z,90.30
2023-01-02T11:26:29.438Z,90.30
2023-01-02T11:28:58.246Z,90.40
2023-01-02T11:31:24.904Z,90.20
2023-01-02T11:33:51.519Z,90.40
2023-01-02T11:36:19.476Z,90.40
2023-01-02T11:38:46.071Z,90.40
2023-01-02T11:41:24.759Z,90.40
2023-01-02T11:43:56.993Z,90.40
2023-01-02T11:46:28.487Z,90.20
2023-01-02T11:49:21.188Z,90.30
2023-01-02T11:51:58.901Z,90.30
2023-01-02T11:54:30.977Z,90.30
2023-01-02T11:56:58.664Z,90.20
2023-01-02T11:59:32.143Z,90.30
2023-01-02T12:02:05.056Z,90.40
2023-01-02T12:04:31.895Z,90.30
2023-01-02T12:07:03.170Z,90.20
2023-01-02T12:09:42.000Z,90.10
2023-01-02T12:12:17.018Z,90.10
2023-01-02T12:14:52.410Z,89.60
2023-01-02T12:17:38.776Z,89.30
2023-01-02T12:20:24.118Z,89.10
2023-01-02T12:23:05.979Z,89.50
2023-01-02T12:25:32.546Z,89.20
2023-01-02T12:28:07.727Z,89.40
2023-01-02T12:30:35.755Z,89.60
2023-01-02T12:33:18.302Z,89.70
2023-01-02T12:35:51.453Z,89.60
2023-01-02T12:38:34.849Z,89.50
2023-01-02T12:41:06.264Z,89.40
2023-01-02T12:43:36.361Z,89.20
2023-01-02T12:46:11.264Z,89.10
2023-01-02T12:48:46.932Z,89.00
2023-01-02T12:51:13.524Z,89.00
2023-01-02T12:53:40.075Z,89.00
2023-01-02T12:56:16.332Z,88.90
2023-01-02T12:58:52.216Z,88.90
2023-01-02T13:01:25.669Z,88.80
2023-01-02T13:03:58.559Z,88.80
2023-01-02T13:06:45.172Z,88.80
2023-01-02T13:09:22.006Z,88.80
2023-01-02T13:11:55.502Z,88.80
2023-01-02T13:14:23.732Z,88.80
2023-01-02T13:17:19.737Z,88.80
2023-01-02T13:20:08.744Z,88.80
2023-01-02T13:22:38.103Z,89.00
2023-01-02T13:25:04.886Z,89.50
2023-01-02T13:27:32.012Z,89.20
2023-01-02T13:30:01.438Z,89.30
2023-01-02T13:32:28.776Z,89.30
2023-01-02T13:34:56.192Z,89.10
2023-01-02T13:37:24.700Z,89.40
2023-01-02T13:39:55.578Z,89.30
2023-01-02T13:42:45.615Z,89.00
2023-01-02T13:45:21.060Z,89.20
2023-01-02T13:47:49.096Z,89.10
2023-01-02T13:50:19.268Z,89.20
2023-01-02T13:53:09.206Z,89.00
2023-01-02T13:55:41.688Z,89.10
2023-01-02T13:58:14.552Z,89.10
2023-01-02T14:00:42.709Z,89.20
2023-01-02T14:03:18.634Z,89.20
2023-01-02T14:05:57.700Z,89.60
2023-01-02T14:08:40.539Z,89.50
2023-01-02T14:11:13.372Z,89.80
2023-01-02T14:13:41.763Z,90.20
2023-01-02T14:16:20.684Z,90.00
2023-01-02T14:19:01.990Z,89.60
2023-01-02T14:21:36.281Z,89.40
2023-01-02T14:24:17.353Z,89.30
2023-01-02T14:26:52.591Z,89.20
2023-01-02T14:29:20.014Z,89.20
2023-01-02T14:31:47.587Z,89.10
2023-01-02T14:34:22.118Z,89.00
2023-01-02T14:36:49.419Z,89.10
2023-01-02T14:39:36.818Z,89.20
2023-01-02T14:42:32.263Z,89.20
2023-01-02T14:45:03.040Z,89.10
2023-01-02T14:47:35.651Z,89.10
2023-01-02T14:50:03.013Z,89.10
2023-01-02T14:52:35.135Z,89.10
2023-01-02T14:55:21.847Z,89.10
2023-01-02T14:57:49.862Z,89.40
2023-01-02T15:00:37.033Z,90.80
2023-01-02T15:03:22.689Z,91.60
2023-01-02T15:05:53.225Z,91.70
2023-01-02T15:08:23.019Z,91.30
2023-01-02T15:10:53.783Z,91.70
2023-01-02T15:13:21.934Z,92.30
2023-01-02T15:15:53.660Z,92.10
2023-01-02T15:18:22.920Z,92.50
2023-01-02T15:20:56.270Z,91.60
2023-01-02T15:23:23.837Z,90.70
2023-01-02T15:25:50.887Z,90.10
2023-01-02T15:28:24.776Z,90.20
2023-01-02T15:30:58.705Z,90.30
2023-01-02T15:33:32.572Z,90.10
2023-01-02T15:36:01.581Z,90.20
2023-01-02T15:38:28.271Z,89.70
2023-01-02T15:40:55.623Z,89.50
2023-01-02T15:43:41.550Z,89.60
2023-01-02T15:46:08.336Z,89.50
2023-01-02T15:48:35.304Z,90.10
2023-01-02T15:51:02.093Z,90.30
2023-01-02T15:53:30.525Z,90.50
2023-01-02T15:55:57.751Z,90.60
2023-01-02T15:58:28.846Z,90.50
2023-01-02T16:01:14.276Z,90.50
2023-01-02T16:04:03.103Z,90.80
2023-01-02T16:06:44.926Z,91.40
2023-01-02T16:09:24.469Z,91.20
2023-01-02T16:11:53.303Z,90.30
2023-01-02T16:14:29.396Z,89.90
2023-01-02T16:17:01.957Z,89.90
2023-01-02T16:19:33.449Z,89.80
2023-01-02T16:22:04.844Z,89.70
2023-01-02T16:24:34.434Z,89.60
2023-01-02T16:27:01.492Z,90.20
2023-01-02T16:29:28.156Z,90.40
2023-01-02T16:31:54.984Z,90.50
2023-01-02T16:34:38.377Z,90.00
2023-01-02T16:37:14.018Z,90.40
2023-01-02T16:39:43.883Z,90.90
2023-01-02T16:42:29.058Z,91.70
2023-01-02T16:44:56.029Z,92.50
2023-01-02T16:47:33.884Z,92.70
2023-01-02T16:50:00.501Z,93.00
2023-01-02T16:52:27.123Z,92.80
2023-01-02T16:54:54.391Z,92.40
2023-01-02T16:57:22.271Z,93.00
2023-01-02T16:59:48.882Z,93.00
2023-01-02T17:02:15.845Z,92.30
2023-01-02T17:04:42.717Z,91.70
2023-01-02T17:07:09.914Z,90.50
2023-01-02T17:09:36.520Z,90.90
2023-01-02T17:12:03.708Z,90.90
2023-01-02T17:14:31.732Z,90.20
2023-01-02T17:16:58.632Z,89.90
2023-01-02T17:19:26.314Z,89.70
2023-01-02T17:21:53.071Z,89.60
2023-01-02T17:24:19.906Z,91.50
2023-01-02T17:26:47.209Z,94.10
2023-01-02T17:29:13.794Z,94.10
2023-01-02T17:31:40.450Z,93.10
2023-01-02T17:34:07.105Z,91.80
2023-01-02T17:36:34.211Z,91.00
2023-01-02T17:39:00.967Z,90.50
2023-01-02T17:41:27.577Z,89.90
2023-01-02T17:44:02.110Z,89.50
2023-01-02T17:49:17.472Z,89.20
2023-01-02T17:51:44.153Z,89.20
2023-01-02T17:54:10.969Z,89.20
2023-01-02T17:56:38.706Z,89.10
2023-01-02T17:59:05.556Z,89.10
2023-01-02T18:01:32.234Z,89.10
2023-01-02T18:03:58.832Z,89.10
2023-01-02T18:06:25.429Z,89.30
2023-01-02T18:08:54.503Z,89.10
2023-01-02T18:11:21.518Z,89.10
2023-01-02T18:13:52.422Z,89.00
2023-01-02T18:16:21.236Z,89.00
2023-01-02T18:18:48.199Z,88.90
2023-01-02T18:21:15.994Z,89.10
2023-01-02T18:23:42.797Z,88.80
2023-01-02T18:26:13.494Z,88.90
2023-01-02T18:28:41.566Z,88.80
2023-01-02T18:31:14.395Z,88.90
2023-01-02T18:33:41.871Z,88.90
2023-01-02T18:36:16.919Z,88.90
2023-01-02T18:38:44.374Z,88.90
2023-01-02T18:41:17.212Z,88.90
2023-01-02T18:43:45.026Z,88.90
2023-01-02T18:46:16.091Z,88.90
2023-01-02T18:48:42.995Z,89.10
2023-01-02T18:51:14.302Z,89.10
2023-01-02T18:53:45.444Z,89.00
2023-01-02T18:56:14.822Z,89.20
2023-01-02T18:58:47.180Z,89.10
2023-01-02T19:01:30.928Z,89.00
2023-01-02T19:04:22.401Z,88.90
2023-01-02T19:06:56.002Z,88.90
2023-01-02T19:09:25.733Z,88.90
2023-01-02T19:12:14.825Z,89.20
2023-01-02T19:14:42.538Z,89.20
2023-01-02T19:17:09.254Z,90.00
2023-01-02T19:19:40.574Z,90.00
2023-01-02T19:22:12.356Z,89.80
2023-01-02T19:24:39.299Z,89.50
2023-01-02T19:27:11.848Z,89.20
2023-01-02T19:29:42.141Z,89.00
2023-01-02T19:32:20.237Z,89.10
2023-01-02T19:34:48.227Z,88.90
2023-01-02T19:37:33.341Z,88.90
2023-01-02T19:40:02.773Z,89.00
2023-01-02T19:42:31.852Z,88.90
2023-01-02T19:44:58.447Z,88.70
2023-01-02T19:47:28.430Z,88.70
2023-01-02T19:49:55.341Z,88.70
2023-01-02T19:52:22.493Z,88.60
2023-01-02T19:54:49.245Z,88.70
2023-01-02T19:57:19.646Z,88.80
2023-01-02T19:59:47.179Z,88.70
2023-01-02T20:02:14.645Z,88.70
2023-01-02T20:04:41.672Z,88.80
2023-01-02T20:07:08.772Z,88.70
2023-01-02T20:09:35.443Z,88.70
2023-01-02T20:12:20.826Z,88.70
2023-01-02T20:14:47.363Z,88.70
2023-01-02T20:17:13.960Z,88.70
2023-01-02T20:19:40.526Z,88.80
2023-01-02T20:22:07.295Z,88.70
2023-01-02T20:24:33.953Z,88.70
2023-01-02T20:27:01.290Z,88.70
2023-01-02T20:29:28.473Z,88.70
2023-01-02T20:31:55.477Z,88.70
2023-01-02T20:34:22.116Z,88.70
2023-01-02T20:36:49.116Z,88.70
2023-01-02T20:39:15.687Z,88.70
2023-01-02T20:41:42.442Z,88.70
2023-01-02T20:44:10.217Z,88.80
2023-01-02T20:46:36.907Z,88.70
2023-01-02T20:49:03.679Z,88.90
2023-01-02T20:51:30.745Z,88.90
2023-01-02T20:53:59.186Z,88.90
2023-01-02T20:56:26.151Z,88.80
2023-01-02T20:58:53.122Z,88.90
2023-01-02T21:01:20.338Z,88.80
2023-01-02T21:03:47.305Z,88.80
2023-01-02T21:06:14.093Z,88.80
2023-01-02T21:08:40.831Z,88.80
2023-01-02T21:11:07.880Z,88.80
2023-01-02T21:13:34.561Z,88.80
2023-01-02T21:16:01.478Z,88.80
2023-01-02T21:18:32.284Z,88.80
2023-01-02T21:21:00.465Z,88.60
2023-01-02T21:23:27.736Z,88.70
2023-01-02T21:25:54.484Z,88.70
2023-01-02T21:28:21.685Z,88.60
2023-01-02T21:30:48.784Z,88.70
2023-01-02T21:33:17.000Z,88.70
2023-01-02T21:35:45.936Z,88.60
2023-01-02T21:38:13.002Z,88.70
2023-01-02T21:40:39.971Z,88.70
2023-01-02T21:43:07.063Z,88.70
2023-01-02T21:45:33.655Z,88.60
2023-01-02T21:48:00.283Z,88.70
2023-01-02T21:50:27.231Z,88.70
2023-01-02T21:52:54.146Z,88.70
2023-01-02T21:55:21.115Z,88.90
2023-01-02T21:58:15.509Z,88.80
2023-01-02T22:00:34.925Z,88.90
2023-01-02T22:03:01.617Z,88.80
2023-01-02T22:05:28.443Z,88.70
2023-01-02T22:07:55.055Z,88.90
2023-01-02T22:10:21.690Z,88.70
2023-01-02T22:12:48.306Z,88.70
2023-01-02T22:15:14.888Z,88.80
2023-01-02T22:17:41.686Z,88.70
2023-01-02T22:20:08.565Z,88.70
2023-01-02T22:22:35.195Z,88.70
2023-01-02T22:25:01.972Z,88.70
2023-01-02T22:27:28.858Z,88.70
2023-01-02T22:32:43.277Z,88.70
2023-01-02T22:35:09.904Z,88.70
2023-01-02T22:37:36.527Z,88.70
2023-01-02T22:40:03.318Z,88.60
2023-01-02T22:43:06.298Z,88.70
2023-01-02T22:45:35.355Z,88.70
2023-01-02T22:48:04.225Z,88.70
2023-01-02T22:50:39.109Z,88.70
2023-01-02T22:53:08.249Z,88.70
2023-01-02T22:55:34.822Z,88.70
2023-01-02T22:58:01.421Z,88.70
2023-01-02T23:00:28.016Z,88.70
2023-01-02T23:02:54.846Z,88.60
2023-01-02T23:05:21.550Z,88.60
2023-01-02T23:07:49.658Z,88.70
2023-01-02T23:10:16.568Z,88.70
2023-01-02T23:12:43.166Z,88.70
2023-01-02T23:15:11.070Z,91.20
2023-01-02T23:17:56.192Z,93.50
2023-01-02T23:20:22.839Z,92.10
2023-01-02T23:22:50.361Z,90.80
2023-01-02T23:25:17.018Z,90.80
2023-01-02T23:27:43.614Z,91.50
2023-01-02T23:30:10.849Z,91.20
2023-01-02T23:32:37.564Z,91.60
2023-01-02T23:35:04.340Z,91.90
2023-01-02T23:37:30.986Z,91.70
2023-01-02T23:39:57.707Z,92.20
2023-01-02T23:42:24.273Z,91.80
2023-01-02T23:44:50.862Z,91.60
2023-01-02T23:47:19.438Z,91.50
2023-01-02T23:49:46.235Z,91.80
2023-01-02T23:52:12.964Z,91.70
2023-01-02T23:54:39.545Z,92.10
2023-01-02T23:57:06.530Z,91.80
2023-01-02T23:59:33.126Z,92.30
